Time;durP1;ratioP1;P1;durP2;ratioP2;P2;SDS_P1;SDS_P2;PMS_P1;PMS_P2;Temp;Humidity;BMP_temperature;BMP_pressure;BME280_temperature;BME280_humidity;BME280_pressure;Samples;Min_cycle;Max_cycle;Signal;HPM_P1;HPM_P2
2023/10/12 00:01:09;;;;;;;14.57;4.00;;;;;;;;;;5044445;28;20115;-90
2023/10/12 00:03:38;;;;;;;13.20;3.72;;;;;;;;;;5057843;28;20056;-90
2023/10/12 00:06:05;;;;;;;12.52;4.07;;;;;;;;;;5058408;28;20353;-90
2023/10/12 00:08:31;;;;;;;11.95;3.50;;;;;;;;;;5057776;28;20081;-90
2023/10/12 00:11:06;;;;;;;8.90;3.70;;;;;;;;;;5058443;28;20103;-91
2023/10/12 00:13:32;;;;;;;17.02;4.28;;;;;;;;;;5058355;28;20502;-90
2023/10/12 00:15:57;;;;;;;8.98;3.80;;;;;;;;;;5057176;28;20032;-90
2023/10/12 00:18:27;;;;;;;9.18;4.15;;;;;;;;;;5057885;28;20348;-90
2023/10/12 00:20:54;;;;;;;8.38;3.97;;;;;;;;;;5057970;28;20464;-90
2023/10/12 00:23:19;;;;;;;8.20;3.47;;;;;;;;;;5057787;28;20024;-91
2023/10/12 00:25:54;;;;;;;9.00;4.00;;;;;;;;;;5058196;28;20534;-91
2023/10/12 00:28:21;;;;;;;7.90;3.25;;;;;;;;;;5058142;28;20023;-90
2023/10/12 00:30:54;;;;;;;14.27;3.75;;;;;;;;;;5058208;28;20028;-90
2023/10/12 00:33:20;;;;;;;10.75;3.90;;;;;;;;;;5058937;28;20020;-90
2023/10/12 00:35:49;;;;;;;9.80;3.50;;;;;;;;;;5058296;28;20081;-91
2023/10/12 00:38:18;;;;;;;7.85;3.78;;;;;;;;;;5057827;28;20467;-91
2023/10/12 00:40:57;;;;;;;9.43;3.70;;;;;;;;;;5058607;28;20167;-90
2023/10/12 00:43:27;;;;;;;14.50;4.15;;;;;;;;;;5058272;28;20119;-90
2023/10/12 00:45:53;;;;;;;13.00;3.88;;;;;;;;;;5058114;28;20387;-90
2023/10/12 00:48:20;;;;;;;11.25;3.97;;;;;;;;;;5057492;28;20016;-91
2023/10/12 00:50:47;;;;;;;10.45;3.85;;;;;;;;;;5057627;28;20090;-91
2023/10/12 00:53:22;;;;;;;9.70;4.10;;;;;;;;;;5057355;28;20056;-90
2023/10/12 00:55:48;;;;;;;11.18;3.70;;;;;;;;;;5057543;28;20476;-91
2023/10/12 00:58:14;;;;;;;13.18;4.15;;;;;;;;;;5055380;28;20036;-91
2023/10/12 01:00:46;;;;;;;12.77;4.50;;;;;;;;;;5056472;28;20024;-91
2023/10/12 01:08:43;;;;;;;15.60;5.15;;;;;;;;;;5074021;28;20099;-91
2023/10/12 01:11:19;;;;;;;10.30;4.45;;;;;;;;;;5056935;28;20020;-90
2023/10/12 01:16:41;;;;;;;13.10;5.00;;;;;;;;;;5074716;28;20012;-90
2023/10/12 01:19:07;;;;;;;16.42;5.75;;;;;;;;;;5056009;28;20021;-90
2023/10/12 01:21:35;;;;;;;13.70;5.78;;;;;;;;;;5056505;28;20016;-90
2023/10/12 01:24:11;;;;;;;11.05;5.82;;;;;;;;;;5056482;28;20029;-89
2023/10/12 01:26:37;;;;;;;12.65;5.85;;;;;;;;;;5056610;28;20051;-88
2023/10/12 01:29:03;;;;;;;20.15;6.80;;;;;;;;;;5060322;28;20021;-88
2023/10/12 01:31:29;;;;;;;21.40;7.00;;;;;;;;;;5055667;28;20017;-86
2023/10/12 01:33:59;;;;;;;18.10;6.75;;;;;;;;;;5056101;28;20084;-88
2023/10/12 01:36:30;;;;;;;19.90;6.60;;;;;;;;;;5077398;28;20028;-88
2023/10/12 01:39:14;;;;;;;21.83;6.78;;;;;;;;;;5054908;28;20050;-88
2023/10/12 01:41:57;;;;;;;16.88;6.97;;;;;;;;;;5059689;28;20094;-90
2023/10/12 01:44:24;;;;;;;15.00;6.40;;;;;;;;;;5060957;28;20036;-91
2023/10/12 01:46:49;;;;;;;13.90;7.22;;;;;;;;;;5061920;28;20058;-91
2023/10/12 01:49:23;;;;;;;16.10;6.45;;;;;;;;;;5062557;28;20032;-91
2023/10/12 01:51:52;;;;;;;14.63;7.22;;;;;;;;;;5080249;28;20418;-89
2023/10/12 01:54:24;;;;;;;20.58;7.45;;;;;;;;;;5055885;28;20351;-89
2023/10/12 01:56:53;;;;;;;;;;;;;;;;;;5078668;28;20047;-89
2023/10/12 01:59:25;;;;;;;16.83;7.65;;;;;;;;;;5055585;28;19958;-89
2023/10/12 02:02:00;;;;;;;;;;;;;;;;;;5055187;28;20024;-89
2023/10/12 02:04:27;;;;;;;15.02;6.82;;;;;;;;;;5055218;28;19957;-90
2023/10/12 02:06:53;;;;;;;22.00;8.07;;;;;;;;;;5055756;28;20024;-89
2023/10/12 02:09:22;;;;;;;16.52;7.13;;;;;;;;;;5054022;28;20035;-89
2023/10/12 02:11:53;;;;;;;16.88;7.03;;;;;;;;;;5054682;28;20016;-89
2023/10/12 02:14:31;;;;;;;17.80;6.67;;;;;;;;;;5041486;28;20024;-88
2023/10/12 02:16:56;;;;;;;14.20;6.93;;;;;;;;;;5054809;28;20033;-89
2023/10/12 02:22:20;;;;;;;17.30;7.03;;;;;;;;;;5073116;28;20487;-89
2023/10/12 02:24:50;;;;;;;18.38;7.05;;;;;;;;;;5054117;28;20031;-89
2023/10/12 02:27:16;;;;;;;16.63;6.63;;;;;;;;;;5054978;28;20398;-89
2023/10/12 02:29:41;;;;;;;13.18;7.32;;;;;;;;;;5054389;28;20027;-89
2023/10/12 02:32:17;;;;;;;21.88;7.97;;;;;;;;;;5054976;28;20523;-89
2023/10/12 02:34:43;;;;;;;13.35;6.93;;;;;;;;;;5051771;28;20024;-89
2023/10/12 02:39:41;;;;;;;19.70;7.95;;;;;;;;;;5073070;28;20024;-89
2023/10/12 02:47:40;;;;;;;19.48;8.57;;;;;;;;;;5077819;28;20015;-89
2023/10/12 02:52:36;;;;;;;15.48;7.80;;;;;;;;;;5077070;28;20056;-89
2023/10/12 02:57:59;;;;;;;20.10;7.97;;;;;;;;;;5082709;28;20028;-89
2023/10/12 03:03:23;;;;;;;17.00;7.30;;;;;;;;;;5071095;28;20058;-91
2023/10/12 03:05:49;;;;;;;16.55;7.80;;;;;;;;;;5055027;28;20017;-90
2023/10/12 03:08:16;;;;;;;19.20;8.18;;;;;;;;;;5054180;28;20424;-91
2023/10/12 03:11:00;;;;;;;14.77;7.30;;;;;;;;;;5053776;28;20028;-91
2023/10/12 03:13:40;;;;;;;21.02;7.40;;;;;;;;;;5053929;28;20584;-91
2023/10/12 03:16:13;;;;;;;20.77;8.20;;;;;;;;;;5054622;28;20024;-91
2023/10/12 03:18:39;;;;;;;17.98;7.07;;;;;;;;;;5054326;28;20021;-91
2023/10/12 03:21:11;;;;;;;17.33;7.80;;;;;;;;;;5053652;28;20051;-91
2023/10/12 03:23:39;;;;;;;17.25;7.32;;;;;;;;;;5053485;28;20158;-91
2023/10/12 03:26:18;;;;;;;14.82;7.38;;;;;;;;;;5053963;28;20110;-91
2023/10/12 03:28:46;;;;;;;15.18;8.00;;;;;;;;;;5054351;28;20016;-90
2023/10/12 03:31:21;;;;;;;20.75;8.25;;;;;;;;;;5046299;28;20025;-90
2023/10/12 03:33:53;;;;;;;19.17;7.55;;;;;;;;;;5053406;28;20028;-90
2023/10/12 03:36:24;;;;;;;17.58;8.32;;;;;;;;;;5053436;28;20024;-90
2023/10/12 03:44:22;;;;;;;22.50;8.63;;;;;;;;;;5071492;28;20028;-90
2023/10/12 03:46:57;;;;;;;22.13;8.35;;;;;;;;;;5054388;28;20016;-90
2023/10/12 03:51:59;;;;;;;18.80;7.38;;;;;;;;;;5073658;28;20510;-91
2023/10/12 03:54:32;;;;;;;23.52;8.85;;;;;;;;;;5056184;28;20029;-91
2023/10/12 03:57:07;;;;;;;22.88;8.13;;;;;;;;;;5057786;28;20448;-90
2023/10/12 04:00:25;;;;;;;18.38;7.90;;;;;;;;;;5057591;28;20020;-91
2023/10/12 04:02:24;;;;;;;23.02;8.63;;;;;;;;;;5066707;28;20047;-90
2023/10/12 04:05:15;;;;;;;20.35;8.35;;;;;;;;;;5086208;28;20024;-90
2023/10/12 04:08:19;;;;;;;20.80;8.30;;;;;;;;;;5064542;28;20115;-90
2023/10/12 04:18:33;;;;;;;19.13;8.40;;;;;;;;;;5076044;28;20416;-90
2023/10/12 04:20:59;;;;;;;18.15;8.02;;;;;;;;;;5056348;28;20056;-89
2023/10/12 04:28:55;;;;;;;21.25;8.85;;;;;;;;;;5027845;28;20032;-90
2023/10/12 04:31:20;;;;;;;22.45;8.38;;;;;;;;;;5054870;28;20032;-90
2023/10/12 04:34:05;;;;;;;19.42;8.18;;;;;;;;;;5056470;28;20032;-90
2023/10/12 04:36:35;;;;;;;17.13;8.10;;;;;;;;;;5056292;28;20107;-90
2023/10/12 04:39:16;;;;;;;19.67;8.18;;;;;;;;;;5056509;28;20024;-90
2023/10/12 04:46:59;;;;;;;18.58;7.97;;;;;;;;;;5073665;28;20020;-88
2023/10/12 04:52:42;;;;;;;20.85;8.00;;;;;;;;;;5072957;28;20375;-89
2023/10/12 04:57:38;;;;;;;15.52;7.43;;;;;;;;;;5065829;28;20367;-90
2023/10/12 05:00:23;;;;;;;21.15;7.75;;;;;;;;;;5057758;28;20032;-89
2023/10/12 05:05:15;;;;;;;21.23;7.68;;;;;;;;;;5076121;28;20121;-90
2023/10/12 05:07:57;;;;;;;20.92;8.10;;;;;;;;;;5061230;28;20517;-90
2023/10/12 05:10:46;;;;;;;19.70;7.68;;;;;;;;;;5061185;28;20024;-89
2023/10/12 05:13:18;;;;;;;17.92;8.00;;;;;;;;;;5062586;28;20037;-90
2023/10/12 05:15:51;;;;;;;23.30;8.27;;;;;;;;;;5083634;28;20035;-89
2023/10/12 05:18:18;;;;;;;18.60;7.80;;;;;;;;;;5064474;28;20399;-90
2023/10/12 05:20:43;;;;;;;19.33;7.65;;;;;;;;;;5080475;28;20043;-89
2023/10/12 05:23:10;;;;;;;14.32;7.85;;;;;;;;;;5056876;28;20032;-89
2023/10/12 05:25:53;;;;;;;21.40;7.82;;;;;;;;;;5062487;28;20084;-89
2023/10/12 05:28:35;;;;;;;25.50;9.10;;;;;;;;;;5092379;28;20009;-90
2023/10/12 05:36:06;;;;;;;18.10;7.93;;;;;;;;;;5073756;28;20104;-89
2023/10/12 05:38:35;;;;;;;20.47;8.07;;;;;;;;;;5041642;28;20398;-90
2023/10/12 05:41:04;;;;;;;16.17;8.82;;;;;;;;;;5054344;28;20434;-90
2023/10/12 05:43:33;;;;;;;22.75;8.98;;;;;;;;;;5072939;28;20344;-90
2023/10/12 05:46:10;;;;;;;23.25;8.35;;;;;;;;;;5055699;28;20020;-90
2023/10/12 05:48:36;;;;;;;15.48;8.20;;;;;;;;;;5050782;28;20028;-90
2023/10/12 05:51:03;;;;;;;18.85;7.78;;;;;;;;;;5054636;28;20416;-90
2023/10/12 05:53:29;;;;;;;14.93;7.25;;;;;;;;;;5054262;28;20029;-90
2023/10/12 05:55:56;;;;;;;23.92;8.68;;;;;;;;;;5054446;28;20020;-90
2023/10/12 05:58:22;;;;;;;23.27;7.53;;;;;;;;;;5054680;28;20375;-90
2023/10/12 06:00:52;;;;;;;21.55;8.93;;;;;;;;;;5054642;28;20031;-90
2023/10/12 06:03:20;;;;;;;17.60;8.60;;;;;;;;;;5053530;28;20051;-90
2023/10/12 06:05:47;;;;;;;20.40;7.75;;;;;;;;;;5040538;28;20108;-90
2023/10/12 06:08:12;;;;;;;17.55;7.78;;;;;;;;;;5054908;28;20104;-90
2023/10/12 06:10:41;;;;;;;17.13;7.85;;;;;;;;;;5054983;28;20021;-90
2023/10/12 06:13:14;;;;;;;20.27;8.25;;;;;;;;;;5054316;28;20095;-90
2023/10/12 06:15:40;;;;;;;15.85;7.88;;;;;;;;;;5058987;28;20514;-90
2023/10/12 06:18:21;;;;;;;31.30;8.82;;;;;;;;;;5057003;28;20186;-90
2023/10/12 06:21:08;;;;;;;17.65;8.38;;;;;;;;;;5056265;28;20059;-90
2023/10/12 06:23:39;;;;;;;19.90;8.10;;;;;;;;;;5054848;28;20052;-90
2023/10/12 06:26:09;;;;;;;16.88;8.77;;;;;;;;;;5056717;28;20292;-90
2023/10/12 06:28:34;;;;;;;18.30;8.35;;;;;;;;;;5057157;28;20169;-90
2023/10/12 06:31:01;;;;;;;18.33;7.97;;;;;;;;;;5048105;28;20059;-90
2023/10/12 06:33:26;;;;;;;21.30;8.73;;;;;;;;;;5041044;28;20640;-91
2023/10/12 06:36:04;;;;;;;24.77;8.45;;;;;;;;;;5059823;28;20020;-90
2023/10/12 06:38:47;;;;;;;15.85;8.35;;;;;;;;;;5056089;28;20078;-90
2023/10/12 06:41:58;;;;;;;17.13;8.23;;;;;;;;;;5053679;28;20032;-90
2023/10/12 06:44:25;;;;;;;21.02;8.20;;;;;;;;;;5064384;28;20041;-90
2023/10/12 06:46:53;;;;;;;17.52;8.18;;;;;;;;;;5055211;28;20410;-90
2023/10/12 06:49:22;;;;;;;15.90;8.32;;;;;;;;;;5053623;28;20496;-91
2023/10/12 06:51:54;;;;;;;19.42;9.75;;;;;;;;;;5054247;28;20016;-91
2023/10/12 06:57:31;;;;;;;18.48;8.68;;;;;;;;;;5072485;28;20021;-90
2023/10/12 06:59:52;;;;;;;19.15;8.68;;;;;;;;;;5065499;28;20031;-90
2023/10/12 07:02:24;;;;;;;20.52;7.70;;;;;;;;;;5052572;28;20029;-90
2023/10/12 07:04:53;;;;;;;16.95;8.15;;;;;;;;;;5052869;28;20020;-90
2023/10/12 07:07:41;;;;;;;17.95;8.45;;;;;;;;;;5049083;28;20066;-90
2023/10/12 07:12:48;;;;;;;18.23;7.70;;;;;;;;;;5057764;28;20135;-90
2023/10/12 07:15:23;;;;;;;20.95;8.55;;;;;;;;;;5053017;28;20387;-90
2023/10/12 07:17:49;;;;;;;19.20;7.65;;;;;;;;;;5048337;28;20021;-90
2023/10/12 07:20:25;;;;;;;21.42;7.80;;;;;;;;;;5062687;28;20035;-90
2023/10/12 07:22:51;;;;;;;17.20;7.82;;;;;;;;;;5048181;28;20457;-90
2023/10/12 07:25:22;;;;;;;19.20;7.00;;;;;;;;;;5056858;28;20063;-90
2023/10/12 07:28:00;;;;;;;15.70;6.53;;;;;;;;;;5051410;28;20070;-91
2023/10/12 07:30:33;;;;;;;20.58;7.53;;;;;;;;;;5060796;28;20033;-90
2023/10/12 07:33:05;;;;;;;11.98;6.55;;;;;;;;;;5078374;28;20021;-90
2023/10/12 07:35:38;;;;;;;;;;;;;;;;;;5060785;28;20028;-90
2023/10/12 07:38:25;;;;;;;14.60;5.97;;;;;;;;;;5065152;28;19951;-90
2023/10/12 07:40:59;;;;;;;13.25;6.05;;;;;;;;;;5061760;28;20056;-91
2023/10/12 07:43:24;;;;;;;16.83;6.20;;;;;;;;;;5058469;28;20048;-90
2023/10/12 07:45:53;;;;;;;22.00;6.40;;;;;;;;;;5059776;28;20040;-91
2023/10/12 07:48:31;;;;;;;13.38;6.18;;;;;;;;;;5056461;28;20025;-90
2023/10/12 07:51:15;;;;;;;18.48;6.03;;;;;;;;;;5057034;28;20441;-90
2023/10/12 07:53:40;;;;;;;12.63;6.18;;;;;;;;;;5057499;28;20459;-91
2023/10/12 07:56:07;;;;;;;15.05;6.22;;;;;;;;;;5057498;28;20020;-91
2023/10/12 07:58:32;;;;;;;16.75;5.75;;;;;;;;;;5057433;28;20036;-91
2023/10/12 08:03:50;;;;;;;17.15;5.82;;;;;;;;;;5074831;28;20681;-91
2023/10/12 08:06:16;;;;;;;19.57;5.87;;;;;;;;;;5057678;28;20402;-91
2023/10/12 08:08:41;;;;;;;11.60;5.22;;;;;;;;;;5057547;28;20368;-91
2023/10/12 08:11:18;;;;;;;12.27;5.57;;;;;;;;;;5051771;28;20029;-91
2023/10/12 08:13:49;;;;;;;10.57;5.55;;;;;;;;;;5056640;28;20134;-90
2023/10/12 08:16:16;;;;;;;16.02;5.40;;;;;;;;;;5056772;28;20024;-90
2023/10/12 08:21:24;;;;;;;15.95;6.45;;;;;;;;;;5073356;28;20079;-90
2023/10/12 08:23:58;;;;;;;22.77;7.60;;;;;;;;;;5055821;28;20440;-90
2023/10/12 08:26:47;;;;;;;27.90;7.57;;;;;;;;;;5057073;28;20047;-90
2023/10/12 08:31:48;;;;;;;22.33;7.90;;;;;;;;;;5074143;28;20023;-90
2023/10/12 08:40:03;;;;;;;16.58;6.00;;;;;;;;;;5075596;28;20039;-90
2023/10/12 08:45:00;;;;;;;16.10;5.77;;;;;;;;;;5075026;28;20092;-90
2023/10/12 08:47:31;;;;;;;17.35;6.43;;;;;;;;;;5056802;28;20013;-91
2023/10/12 08:52:28;;;;;;;17.27;5.55;;;;;;;;;;5063699;28;20070;-91
2023/10/12 08:55:12;;;;;;;16.17;6.22;;;;;;;;;;5057190;28;20029;-86
2023/10/12 08:57:51;;;;;;;22.70;6.53;;;;;;;;;;5057087;28;20031;-86
2023/10/12 09:00:39;;;;;;;15.85;5.72;;;;;;;;;;5055440;28;20087;-90
2023/10/12 09:03:06;;;;;;;15.27;6.07;;;;;;;;;;5073802;28;20051;-91
2023/10/12 09:05:31;;;;;;;12.82;4.85;;;;;;;;;;5056162;28;20337;-92
2023/10/12 09:13:28;;;;;;;16.95;5.57;;;;;;;;;;5075243;28;20051;-94
2023/10/12 09:15:54;;;;;;;16.10;5.03;;;;;;;;;;5049282;28;20028;-92
2023/10/12 09:18:21;;;;;;;12.20;6.13;;;;;;;;;;5050359;28;20454;-89
2023/10/12 09:24:15;;;;;;;13.73;5.15;;;;;;;;;;5073591;28;20027;-88
2023/10/12 09:26:34;;;;;;;15.50;5.38;;;;;;;;;;5065034;28;20027;-88
2023/10/12 09:36:37;;;;;;;12.00;5.97;;;;;;;;;;5073135;28;20095;-88
2023/10/12 09:39:03;;;;;;;16.40;5.72;;;;;;;;;;5052888;28;20108;-88
2023/10/12 09:41:32;;;;;;;10.77;5.40;;;;;;;;;;5073445;28;20067;-89
2023/10/12 09:43:58;;;;;;;15.85;6.13;;;;;;;;;;5089127;28;20032;-88
2023/10/12 09:46:27;;;;;;;12.65;5.68;;;;;;;;;;5057921;28;20039;-88
2023/10/12 09:48:58;;;;;;;15.43;6.35;;;;;;;;;;5057095;28;20498;-87
2023/10/12 09:51:25;;;;;;;11.63;5.83;;;;;;;;;;5056945;28;20028;-88
2023/10/12 09:53:58;;;;;;;14.15;5.35;;;;;;;;;;5057254;28;20268;-88
2023/10/12 09:56:28;;;;;;;11.13;5.75;;;;;;;;;;5057010;28;20039;-88
2023/10/12 09:59:08;;;;;;;16.73;6.35;;;;;;;;;;5052851;28;20059;-87
2023/10/12 10:06:51;;;;;;;13.95;5.43;;;;;;;;;;5073290;28;20523;-88
2023/10/12 10:09:24;;;;;;;14.45;5.43;;;;;;;;;;5073212;28;20091;-88
2023/10/12 10:11:58;;;;;;;14.10;6.15;;;;;;;;;;5054555;28;20051;-88
2023/10/12 10:14:26;;;;;;;13.88;6.18;;;;;;;;;;5054487;28;20460;-88
2023/10/12 10:16:58;;;;;;;15.05;5.57;;;;;;;;;;5054843;28;20078;-88
2023/10/12 10:19:28;;;;;;;20.55;6.88;;;;;;;;;;5055277;28;20062;-88
2023/10/12 10:22:05;;;;;;;11.90;5.93;;;;;;;;;;5054493;28;20059;-89
2023/10/12 10:24:36;;;;;;;13.00;5.50;;;;;;;;;;5071551;28;20421;-88
2023/10/12 10:27:15;;;;;;;15.88;5.55;;;;;;;;;;5086179;28;20016;-88
2023/10/12 10:29:44;;;;;;;15.93;5.50;;;;;;;;;;5072813;28;20024;-88
2023/10/12 10:32:14;;;;;;;16.30;5.53;;;;;;;;;;5054185;28;20415;-87
2023/10/12 10:34:40;;;;;;;15.65;5.25;;;;;;;;;;5053210;28;20032;-88
2023/10/12 10:37:11;;;;;;;17.50;5.60;;;;;;;;;;5054982;28;20412;-88
2023/10/12 10:39:38;;;;;;;13.90;4.93;;;;;;;;;;5054592;28;20114;-88
2023/10/12 10:42:08;;;;;;;11.60;4.95;;;;;;;;;;5054101;28;20320;-87
2023/10/12 10:44:41;;;;;;;12.65;5.13;;;;;;;;;;5054480;28;20107;-88
2023/10/12 10:47:09;;;;;;;11.18;6.05;;;;;;;;;;5054206;28;20443;-87
2023/10/12 10:49:35;;;;;;;15.80;6.20;;;;;;;;;;5056886;28;20036;-87
2023/10/12 10:52:26;;;;;;;17.33;5.40;;;;;;;;;;5053037;28;20028;-86
2023/10/12 10:54:59;;;;;;;11.35;5.50;;;;;;;;;;5071230;28;20464;-87
2023/10/12 10:57:25;;;;;;;11.80;5.72;;;;;;;;;;5054700;28;20113;-87
2023/10/12 10:59:54;;;;;;;17.45;6.28;;;;;;;;;;5051446;28;20056;-87
2023/10/12 11:02:20;;;;;;;14.57;6.70;;;;;;;;;;5090112;28;20025;-87
2023/10/12 11:04:46;;;;;;;15.95;7.28;;;;;;;;;;5059978;28;20021;-88
2023/10/12 11:07:17;;;;;;;17.08;6.18;;;;;;;;;;5059952;28;20023;-87
2023/10/12 11:10:31;;;;;;;15.02;7.80;;;;;;;;;;5060243;28;20080;-87
2023/10/12 11:12:38;;;;;;;16.10;7.63;;;;;;;;;;5069714;28;20028;-88
2023/10/12 11:15:07;;;;;;;20.08;7.20;;;;;;;;;;5057838;28;20035;-87
2023/10/12 11:17:56;;;;;;;15.55;7.15;;;;;;;;;;5059047;28;20069;-88
2023/10/12 11:23:13;;;;;;;21.40;7.28;;;;;;;;;;5087381;28;20024;-88
2023/10/12 11:25:41;;;;;;;27.75;8.18;;;;;;;;;;5048587;28;20107;-87
2023/10/12 11:28:19;;;;;;;18.15;6.85;;;;;;;;;;5058602;28;20379;-86
2023/10/12 11:30:44;;;;;;;19.70;7.45;;;;;;;;;;5057907;28;20577;-88
2023/10/12 11:33:09;;;;;;;16.60;6.85;;;;;;;;;;5058026;28;20491;-87
2023/10/12 11:35:44;;;;;;;18.20;5.75;;;;;;;;;;5058257;28;20602;-87
2023/10/12 11:38:20;;;;;;;13.80;7.03;;;;;;;;;;5056728;28;20032;-87
2023/10/12 11:40:55;;;;;;;20.48;6.97;;;;;;;;;;5056852;28;20222;-87
2023/10/12 11:43:21;;;;;;;17.13;6.18;;;;;;;;;;5057909;28;20017;-87
2023/10/12 11:46:06;;;;;;;20.05;7.45;;;;;;;;;;5057698;28;20463;-87
2023/10/12 11:48:31;;;;;;;15.90;6.90;;;;;;;;;;5056850;28;20055;-87
2023/10/12 11:50:57;;;;;;;15.43;6.53;;;;;;;;;;5053618;28;20020;-88
2023/10/12 11:53:24;;;;;;;18.65;6.95;;;;;;;;;;5057857;28;20379;-88
2023/10/12 11:56:01;;;;;;;14.82;6.82;;;;;;;;;;5057383;28;20020;-88
2023/10/12 11:58:27;;;;;;;16.05;6.65;;;;;;;;;;5055807;28;20028;-87
2023/10/12 12:00:53;;;;;;;16.27;6.97;;;;;;;;;;5057700;28;20023;-88
2023/10/12 12:03:18;;;;;;;14.57;6.93;;;;;;;;;;5054799;28;20051;-88
2023/10/12 12:05:50;;;;;;;13.48;6.05;;;;;;;;;;5076582;28;20044;-87
2023/10/12 12:08:17;;;;;;;14.68;6.45;;;;;;;;;;5059148;28;20029;-88
2023/10/12 12:10:53;;;;;;;21.45;6.82;;;;;;;;;;5058742;28;20086;-88
2023/10/12 12:13:23;;;;;;;16.70;5.63;;;;;;;;;;5047368;28;20104;-88
2023/10/12 12:15:55;;;;;;;15.27;6.72;;;;;;;;;;5054558;28;20443;-88
2023/10/12 12:18:20;;;;;;;;;;;;;;;;;;5068498;28;20013;-87
2023/10/12 12:20:53;;;;;;;14.57;6.38;;;;;;;;;;5058303;28;19912;-87
2023/10/12 12:23:19;;;;;;;15.13;5.47;;;;;;;;;;5057876;28;20023;-87
2023/10/12 12:25:44;;;;;;;19.52;6.07;;;;;;;;;;5056343;28;20017;-88
2023/10/12 12:28:14;;;;;;;11.40;5.90;;;;;;;;;;5080386;28;20104;-87
2023/10/12 12:30:39;;;;;;;18.38;6.35;;;;;;;;;;5049036;28;20101;-87
2023/10/12 12:33:15;;;;;;;11.52;5.78;;;;;;;;;;5056571;28;20025;-87
2023/10/12 12:35:41;;;;;;;12.38;5.80;;;;;;;;;;5056478;28;20395;-87
2023/10/12 12:38:07;;;;;;;20.40;7.60;;;;;;;;;;5057146;28;20035;-87
2023/10/12 12:40:38;;;;;;;17.92;6.43;;;;;;;;;;5057184;28;20501;-87
2023/10/12 12:43:07;;;;;;;18.17;7.10;;;;;;;;;;5066839;28;20032;-86
2023/10/12 12:45:35;;;;;;;14.80;7.03;;;;;;;;;;5056012;28;20033;-87
2023/10/12 12:48:01;;;;;;;14.80;6.10;;;;;;;;;;5056206;28;20040;-86
2023/10/12 12:50:28;;;;;;;15.85;5.97;;;;;;;;;;5056959;28;20521;-87
2023/10/12 12:52:53;;;;;;;18.00;6.95;;;;;;;;;;5056313;28;20444;-87
2023/10/12 12:55:22;;;;;;;14.73;6.32;;;;;;;;;;5055789;28;20016;-86
2023/10/12 12:57:47;;;;;;;20.67;6.70;;;;;;;;;;5054905;28;20383;-87
2023/10/12 13:00:19;;;;;;;30.08;7.63;;;;;;;;;;5055924;28;20020;-87
2023/10/12 13:02:46;;;;;;;;;;;;;;;;;;5056586;28;20029;-87
2023/10/12 13:05:11;;;;;;;14.38;6.13;;;;;;;;;;5055231;28;19911;-87
2023/10/12 13:07:36;;;;;;;11.07;5.75;;;;;;;;;;5055058;28;20021;-87
2023/10/12 13:10:02;;;;;;;15.35;6.78;;;;;;;;;;5076064;28;20020;-88
2023/10/12 13:12:31;;;;;;;15.95;7.65;;;;;;;;;;5058108;28;20013;-87
2023/10/12 13:15:00;;;;;;;14.88;7.07;;;;;;;;;;5055380;28;20036;-87
2023/10/12 13:17:29;;;;;;;16.58;7.55;;;;;;;;;;5055171;28;20021;-88
2023/10/12 13:19:58;;;;;;;17.58;7.18;;;;;;;;;;5080287;28;20024;-86
2023/10/12 13:22:27;;;;;;;15.02;6.68;;;;;;;;;;5055662;28;20024;-87
2023/10/12 13:24:56;;;;;;;18.20;7.07;;;;;;;;;;5060938;28;20012;-81
2023/10/12 13:27:27;;;;;;;20.13;6.75;;;;;;;;;;5058591;28;20016;-82
2023/10/12 13:30:09;;;;;;;17.67;6.47;;;;;;;;;;5057174;28;20472;-82
2023/10/12 13:32:38;;;;;;;18.15;7.22;;;;;;;;;;5062788;28;20029;-81
2023/10/12 13:35:55;;;;;;;14.63;6.35;;;;;;;;;;5056569;28;20250;-81
2023/10/12 13:37:52;;;;;;;18.70;6.97;;;;;;;;;;5064050;28;20044;-81
2023/10/12 13:40:21;;;;;;;20.50;6.82;;;;;;;;;;5093242;28;20032;-81
2023/10/12 13:42:46;;;;;;;18.95;6.88;;;;;;;;;;5053243;28;20107;-82
2023/10/12 13:45:18;;;;;;;27.17;7.95;;;;;;;;;;5054585;28;20032;-81
2023/10/12 13:47:46;;;;;;;19.13;7.68;;;;;;;;;;5055026;28;20020;-81
2023/10/12 13:50:12;;;;;;;16.75;6.22;;;;;;;;;;5054316;28;20594;-81
2023/10/12 13:52:38;;;;;;;17.63;6.28;;;;;;;;;;5054801;28;20021;-82
2023/10/12 13:55:14;;;;;;;14.80;6.90;;;;;;;;;;5087857;28;20021;-82
2023/10/12 13:57:50;;;;;;;20.00;7.40;;;;;;;;;;5054826;28;20025;-82
2023/10/12 14:00:17;;;;;;;20.83;7.85;;;;;;;;;;5054223;28;20398;-82
2023/10/12 14:02:42;;;;;;;18.92;7.75;;;;;;;;;;5054490;28;20537;-82
2023/10/12 14:05:10;;;;;;;15.45;6.85;;;;;;;;;;5054246;28;20024;-81
2023/10/12 14:07:38;;;;;;;19.02;7.05;;;;;;;;;;5072316;28;20021;-82
2023/10/12 14:10:06;;;;;;;18.13;6.00;;;;;;;;;;5087730;28;20080;-81
2023/10/12 14:12:33;;;;;;;17.58;7.00;;;;;;;;;;5053956;28;20066;-81
2023/10/12 14:14:58;;;;;;;19.30;7.10;;;;;;;;;;5053479;28;20025;-82
2023/10/12 14:17:24;;;;;;;15.05;6.72;;;;;;;;;;5087318;28;20026;-82
2023/10/12 14:19:51;;;;;;;21.23;7.65;;;;;;;;;;5053803;28;20016;-82
2023/10/12 14:22:16;;;;;;;17.83;6.60;;;;;;;;;;5054850;28;20059;-82
2023/10/12 14:24:46;;;;;;;19.55;7.88;;;;;;;;;;5054068;28;20040;-82
2023/10/12 14:27:14;;;;;;;13.00;6.63;;;;;;;;;;5054187;28;20494;-82
2023/10/12 14:29:41;;;;;;;17.27;6.88;;;;;;;;;;5056520;28;20029;-81
2023/10/12 14:32:08;;;;;;;13.73;6.50;;;;;;;;;;5076471;28;20445;-82
2023/10/12 14:34:34;;;;;;;15.15;7.18;;;;;;;;;;5055145;28;20423;-81
2023/10/12 14:37:13;;;;;;;16.48;7.82;;;;;;;;;;5058618;28;20025;-81
2023/10/12 14:39:38;;;;;;;22.52;8.00;;;;;;;;;;5056593;28;20074;-81
2023/10/12 14:42:06;;;;;;;16.45;6.95;;;;;;;;;;5093180;28;20028;-82
2023/10/12 14:44:35;;;;;;;16.17;6.65;;;;;;;;;;5060546;28;20112;-81
2023/10/12 14:47:06;;;;;;;17.92;6.78;;;;;;;;;;5057417;28;20020;-81
2023/10/12 14:49:36;;;;;;;16.45;6.30;;;;;;;;;;5054560;28;20028;-82
2023/10/12 14:52:06;;;;;;;25.80;7.95;;;;;;;;;;5059647;28;20425;-81
2023/10/12 14:54:32;;;;;;;15.68;7.47;;;;;;;;;;5054305;28;20150;-81
2023/10/12 14:57:00;;;;;;;17.52;7.18;;;;;;;;;;5053390;28;20111;-82
2023/10/12 14:59:25;;;;;;;13.95;7.55;;;;;;;;;;5054608;28;20458;-82
2023/10/12 15:01:51;;;;;;;17.02;7.82;;;;;;;;;;5052887;28;20108;-82
2023/10/12 15:04:16;;;;;;;25.30;8.40;;;;;;;;;;5053934;28;20162;-81
2023/10/12 15:06:42;;;;;;;16.20;8.30;;;;;;;;;;5071605;28;20064;-82
2023/10/12 15:09:12;;;;;;;17.58;7.60;;;;;;;;;;5053317;28;20024;-81
2023/10/12 15:11:38;;;;;;;20.20;8.57;;;;;;;;;;5053673;28;20017;-82
2023/10/12 15:14:06;;;;;;;14.45;7.63;;;;;;;;;;5053352;28;20486;-81
2023/10/12 15:16:31;;;;;;;16.25;7.32;;;;;;;;;;5053788;28;20418;-82
2023/10/12 15:18:59;;;;;;;19.83;9.25;;;;;;;;;;5052506;28;20074;-82
2023/10/12 15:21:24;;;;;;;18.67;8.82;;;;;;;;;;5053186;28;20020;-82
2023/10/12 15:23:49;;;;;;;17.92;8.30;;;;;;;;;;5052793;28;20074;-82
2023/10/12 15:26:16;;;;;;;18.65;8.40;;;;;;;;;;5071351;28;20021;-82
2023/10/12 15:28:47;;;;;;;18.17;8.38;;;;;;;;;;5053407;28;20024;-81
2023/10/12 15:31:13;;;;;;;20.95;9.10;;;;;;;;;;5052977;28;20020;-81
2023/10/12 15:33:39;;;;;;;17.05;8.50;;;;;;;;;;5052783;28;20074;-82
2023/10/12 15:36:07;;;;;;;18.40;9.45;;;;;;;;;;5074983;28;20036;-82
2023/10/12 15:38:32;;;;;;;19.00;9.93;;;;;;;;;;5054182;28;20035;-82
2023/10/12 15:41:00;;;;;;;20.67;9.02;;;;;;;;;;5053726;28;20025;-81
2023/10/12 15:43:26;;;;;;;21.38;9.43;;;;;;;;;;5069649;28;20065;-82
2023/10/12 15:45:53;;;;;;;26.58;8.85;;;;;;;;;;5058104;28;20020;-81
2023/10/12 15:48:26;;;;;;;20.98;9.73;;;;;;;;;;5060159;28;20089;-81
2023/10/12 15:50:58;;;;;;;22.63;9.52;;;;;;;;;;5061865;28;20020;-81
2023/10/12 15:53:24;;;;;;;18.95;9.18;;;;;;;;;;5058394;28;20078;-82
2023/10/12 15:55:52;;;;;;;25.80;10.60;;;;;;;;;;5062907;28;20054;-80
2023/10/12 15:58:18;;;;;;;18.55;9.25;;;;;;;;;;5062201;28;20017;-82
2023/10/12 16:00:45;;;;;;;19.65;9.05;;;;;;;;;;5066674;28;20428;-81
2023/10/12 16:03:10;;;;;;;21.05;9.40;;;;;;;;;;5089934;28;20123;-81
2023/10/12 16:05:36;;;;;;;25.25;10.43;;;;;;;;;;5058677;28;20062;-82
2023/10/12 16:08:10;;;;;;;28.40;10.38;;;;;;;;;;5087602;28;20357;-81
2023/10/12 16:10:36;;;;;;;23.83;9.93;;;;;;;;;;5055735;28;20031;-81
2023/10/12 16:13:02;;;;;;;30.83;11.13;;;;;;;;;;5056287;28;20016;-80
2023/10/12 16:15:30;;;;;;;16.10;9.43;;;;;;;;;;5073630;28;20032;-81
2023/10/12 16:17:58;;;;;;;21.77;10.05;;;;;;;;;;5051425;28;20430;-83
2023/10/12 16:20:25;;;;;;;25.45;9.90;;;;;;;;;;5057100;28;20615;-82
2023/10/12 16:22:50;;;;;;;25.55;11.27;;;;;;;;;;5053947;28;20440;-81
2023/10/12 16:25:17;;;;;;;20.52;10.90;;;;;;;;;;5068454;28;20127;-82
2023/10/12 16:27:47;;;;;;;20.48;9.85;;;;;;;;;;5057220;28;20356;-82
2023/10/12 16:30:15;;;;;;;27.50;11.00;;;;;;;;;;5059225;28;20468;-81
2023/10/12 16:32:48;;;;;;;21.95;10.55;;;;;;;;;;5072484;28;20028;-82
2023/10/12 16:35:23;;;;;;;22.25;11.25;;;;;;;;;;5072581;28;20189;-84
2023/10/12 16:37:49;;;;;;;23.42;12.25;;;;;;;;;;5052836;28;20409;-82
2023/10/12 16:40:17;;;;;;;36.28;16.48;;;;;;;;;;5058495;28;20110;-82
2023/10/12 16:42:43;;;;;;;25.48;11.77;;;;;;;;;;5052418;28;20501;-84
2023/10/12 16:45:14;;;;;;;27.75;14.65;;;;;;;;;;5088850;28;20130;-84